Terminal Aerodrome Forecast
Issued by NWS

Home | Current Version | Previous Version | Text Only | Print | Product List | Glossary Off
Versions: 1 2 3 4 5 6 7 8 9 10 11 12 13 14 15

000
FTUS41 KCLE 271650 AAA
TAFFDY
TAF AMD
KFDY 271650Z 2717/2812 22015G25KT P6SM BKN040
     FM271800 22018G28KT P6SM BKN050
      TEMPO 2718/2721 27025G40KT 2SM -TSRA OVC035CB
     FM272100 26010KT P6SM VCSH BKN080
     FM280000 29008KT P6SM SCT120
     FM280900 VRB03KT 4SM BR SCT015=

USA.gov is the U.S. government's official web portal to all federal, state and local government web resources and services.